KLIMATOLOGI DAS LIMBOTO HEPUHULAWA

Tanggal Temperature (oC) RH (%) PAN 'A' Kecepatan Angin (KM/hari) Sinar Matahari (%) Hujan Biasa (mm)
Max Min Rata-rata Temp Air Dlm Tangki (oC) Penguapan (mm)
2022-04-30 32.5 24.5 28.5 96 30.5 4.2 11.2 8.3 27.2
2022-04-29 34 25.5 29.8 96 32 4 18.1 34.8 0.01
2022-04-28 34 25.5 29.8 96 31.5 6 28.1 60.4 0
2022-04-27 34.5 24.5 29.5 95 27.5 2 16.1 0 1
2022-04-26 34 24.5 29.3 95 31.5 4 22.6 51.3 0.01
2022-04-25 36.5 24.5 30.5 96 33 4.4 23.2 57.1 1.4
2022-04-24 35 24 29.5 94 32.5 5.5 19.9 56.3 0
2022-04-23 34 24 29 96 32 3 21.6 46.4 0
2022-04-22 34.5 24.5 29.5 96 32 5 17.9 44.7 20
2022-04-21 34.5 25 29.8 93 32 4.4 15.9 42.2 1.4
2022-04-20 34.5 24.5 29.5 96 32.5 5 29.5 53 2
2022-04-19 30 25.5 27.8 96 32 4 28.1 62.1 0
2022-04-18 36 23 29.5 94 32 5 19.6 66.2 0
2022-04-17 30.5 22.5 26.5 93 27.5 0.2 5.4 8.3 2.2
2022-04-16 34.5 25 29.8 93 31.5 4.2 20.4 43 1.2
2022-04-15 35.5 24 29.8 93 31.5 4 17.6 34.9 0
2022-04-14 34.5 24 29.3 94 31.5 6 30.6 56.6 0
2022-04-13 33.5 23 28.3 95 30 3.2 16.6 28.3 0.2
2022-04-12 34.5 24 29.3 96 31.5 4 24.5 49.1 0
2022-04-11 33.5 24 28.8 96 31.5 5 30.8 56.6 1
2022-04-10 33 23.5 28.3 95 29.5 2 17.6 25.8 0.01
2022-04-09 33.5 24.5 29 96 30.5 3 19.6 39.9 0.01
2022-04-08 33.5 24 28.8 92 31 4 23.8 43.3 0
2022-04-07 34 23.5 28.8 94 30.5 3 23.5 59.1 0
2022-04-06 33.5 24.5 29 96 30.5 5.4 24.3 38.3 11.4
2022-04-05 34 25 29.5 92 31 2.8 18.6 49.9 3.8
2022-04-04 34 23.5 28.8 96 30.5 3 18.3 50.7 0
2022-04-03 33 23 28 96 29.5 4 14 26.6 9
2022-04-02 35.5 25.5 30.5 94 31.5 4 19.3 42.4 23
2022-04-01 35.5 24 29.8 96 33 5 24.6 58.2 0